sensor_id;sensor_type;location;lat;lon;timestamp;P1;durP1;ratioP1;P2;durP2;ratioP2
15228;SDS011;7717;47.792;12.076;2023-02-28T00:00:02;5.37;;;4.07;;
15228;SDS011;7717;47.792;12.076;2023-02-28T00:02:34;4.50;;;4.10;;
15228;SDS011;7717;47.792;12.076;2023-02-28T00:05:00;5.47;;;3.73;;
15228;SDS011;7717;47.792;12.076;2023-02-28T00:07:28;4.23;;;3.83;;
15228;SDS011;7717;47.792;12.076;2023-02-28T00:09:54;4.97;;;4.20;;
15228;SDS011;7717;47.792;12.076;2023-02-28T00:12:20;4.53;;;4.13;;
15228;SDS011;7717;47.792;12.076;2023-02-28T00:14:45;9.20;;;4.27;;
15228;SDS011;7717;47.792;12.076;2023-02-28T00:17:10;7.17;;;4.40;;
15228;SDS011;7717;47.792;12.076;2023-02-28T00:19:36;7.90;;;5.00;;
15228;SDS011;7717;47.792;12.076;2023-02-28T00:22:01;4.70;;;3.93;;
15228;SDS011;7717;47.792;12.076;2023-02-28T00:24:27;4.53;;;3.70;;
15228;SDS011;7717;47.792;12.076;2023-02-28T00:26:52;4.53;;;4.13;;
15228;SDS011;7717;47.792;12.076;2023-02-28T00:29:17;5.70;;;4.27;;
15228;SDS011;7717;47.792;12.076;2023-02-28T00:31:43;5.50;;;4.20;;
15228;SDS011;7717;47.792;12.076;2023-02-28T00:34:08;6.40;;;4.90;;
15228;SDS011;7717;47.792;12.076;2023-02-28T00:36:33;5.00;;;4.50;;
15228;SDS011;7717;47.792;12.076;2023-02-28T00:38:59;5.10;;;4.50;;
15228;SDS011;7717;47.792;12.076;2023-02-28T00:41:24;5.13;;;3.97;;
15228;SDS011;7717;47.792;12.076;2023-02-28T00:43:49;5.70;;;4.70;;
15228;SDS011;7717;47.792;12.076;2023-02-28T00:46:15;4.27;;;3.87;;
15228;SDS011;7717;47.792;12.076;2023-02-28T00:48:40;5.50;;;5.00;;
15228;SDS011;7717;47.792;12.076;2023-02-28T00:51:06;6.17;;;4.53;;
15228;SDS011;7717;47.792;12.076;2023-02-28T00:53:31;5.57;;;4.30;;
15228;SDS011;7717;47.792;12.076;2023-02-28T00:55:57;5.37;;;4.23;;
15228;SDS011;7717;47.792;12.076;2023-02-28T00:58:24;8.17;;;4.43;;
15228;SDS011;7717;47.792;12.076;2023-02-28T01:00:50;5.40;;;4.50;;
15228;SDS011;7717;47.792;12.076;2023-02-28T01:03:17;7.33;;;4.07;;
15228;SDS011;7717;47.792;12.076;2023-02-28T01:05:43;5.40;;;4.77;;
15228;SDS011;7717;47.792;12.076;2023-02-28T01:08:09;6.43;;;4.83;;
15228;SDS011;7717;47.792;12.076;2023-02-28T01:10:35;5.30;;;4.80;;
15228;SDS011;7717;47.792;12.076;2023-02-28T01:13:01;5.27;;;4.30;;
15228;SDS011;7717;47.792;12.076;2023-02-28T01:15:27;4.40;;;4.00;;
15228;SDS011;7717;47.792;12.076;2023-02-28T01:17:53;5.83;;;3.97;;
15228;SDS011;7717;47.792;12.076;2023-02-28T01:20:18;4.93;;;4.33;;
15228;SDS011;7717;47.792;12.076;2023-02-28T01:22:44;4.83;;;4.17;;
15228;SDS011;7717;47.792;12.076;2023-02-28T01:25:09;5.67;;;4.07;;
15228;SDS011;7717;47.792;12.076;2023-02-28T01:27:35;4.60;;;4.03;;
15228;SDS011;7717;47.792;12.076;2023-02-28T01:30:00;6.03;;;4.43;;
15228;SDS011;7717;47.792;12.076;2023-02-28T01:32:27;5.77;;;4.33;;
15228;SDS011;7717;47.792;12.076;2023-02-28T01:34:52;5.23;;;4.67;;
15228;SDS011;7717;47.792;12.076;2023-02-28T01:37:17;5.30;;;4.37;;
15228;SDS011;7717;47.792;12.076;2023-02-28T01:39:43;4.73;;;4.23;;
15228;SDS011;7717;47.792;12.076;2023-02-28T01:42:09;7.03;;;4.80;;
15228;SDS011;7717;47.792;12.076;2023-02-28T01:47:22;8.10;;;4.37;;
15228;SDS011;7717;47.792;12.076;2023-02-28T01:49:50;6.40;;;4.40;;
15228;SDS011;7717;47.792;12.076;2023-02-28T01:52:16;5.97;;;4.77;;
15228;SDS011;7717;47.792;12.076;2023-02-28T01:54:44;5.97;;;4.60;;
15228;SDS011;7717;47.792;12.076;2023-02-28T01:57:15;4.70;;;4.17;;
15228;SDS011;7717;47.792;12.076;2023-02-28T01:59:52;4.30;;;3.87;;
15228;SDS011;7717;47.792;12.076;2023-02-28T02:02:29;4.33;;;3.87;;
15228;SDS011;7717;47.792;12.076;2023-02-28T02:05:12;5.57;;;4.23;;
15228;SDS011;7717;47.792;12.076;2023-02-28T02:07:51;6.70;;;4.20;;
15228;SDS011;7717;47.792;12.076;2023-02-28T02:10:20;4.23;;;3.77;;
15228;SDS011;7717;47.792;12.076;2023-02-28T02:15:46;6.27;;;4.87;;
15228;SDS011;7717;47.792;12.076;2023-02-28T02:18:37;7.40;;;4.37;;
15228;SDS011;7717;47.792;12.076;2023-02-28T02:35:01;6.07;;;4.83;;
15228;SDS011;7717;47.792;12.076;2023-02-28T02:40:22;5.97;;;4.53;;
15228;SDS011;7717;47.792;12.076;2023-02-28T02:42:57;5.47;;;4.87;;
15228;SDS011;7717;47.792;12.076;2023-02-28T02:45:59;6.00;;;4.73;;
15228;SDS011;7717;47.792;12.076;2023-02-28T02:48:30;5.40;;;4.33;;
15228;SDS011;7717;47.792;12.076;2023-02-28T02:50:59;7.27;;;4.60;;
15228;SDS011;7717;47.792;12.076;2023-02-28T02:53:36;5.13;;;3.97;;
15228;SDS011;7717;47.792;12.076;2023-02-28T02:56:06;5.33;;;3.77;;
15228;SDS011;7717;47.792;12.076;2023-02-28T02:58:34;4.33;;;4.00;;
15228;SDS011;7717;47.792;12.076;2023-02-28T03:01:07;8.00;;;4.50;;
15228;SDS011;7717;47.792;12.076;2023-02-28T03:03:35;7.87;;;4.37;;
15228;SDS011;7717;47.792;12.076;2023-02-28T03:06:02;6.27;;;5.13;;
15228;SDS011;7717;47.792;12.076;2023-02-28T03:08:29;6.40;;;4.27;;
15228;SDS011;7717;47.792;12.076;2023-02-28T03:10:59;5.40;;;4.20;;
15228;SDS011;7717;47.792;12.076;2023-02-28T03:16:25;4.63;;;3.80;;
15228;SDS011;7717;47.792;12.076;2023-02-28T03:25:06;3.90;;;3.60;;
15228;SDS011;7717;47.792;12.076;2023-02-28T03:30:10;5.33;;;4.03;;
15228;SDS011;7717;47.792;12.076;2023-02-28T03:35:32;5.70;;;4.13;;
15228;SDS011;7717;47.792;12.076;2023-02-28T03:38:46;5.40;;;4.07;;
15228;SDS011;7717;47.792;12.076;2023-02-28T03:43:43;4.33;;;3.87;;
15228;SDS011;7717;47.792;12.076;2023-02-28T03:46:15;4.40;;;3.37;;
15228;SDS011;7717;47.792;12.076;2023-02-28T03:48:49;4.63;;;3.80;;
15228;SDS011;7717;47.792;12.076;2023-02-28T03:51:20;5.07;;;3.93;;
15228;SDS011;7717;47.792;12.076;2023-02-28T03:53:59;4.77;;;3.77;;
15228;SDS011;7717;47.792;12.076;2023-02-28T03:56:37;6.57;;;4.20;;
15228;SDS011;7717;47.792;12.076;2023-02-28T04:01:50;6.20;;;4.67;;
15228;SDS011;7717;47.792;12.076;2023-02-28T04:04:16;4.13;;;3.70;;
15228;SDS011;7717;47.792;12.076;2023-02-28T04:06:43;6.57;;;4.57;;
15228;SDS011;7717;47.792;12.076;2023-02-28T04:09:10;4.53;;;4.17;;
15228;SDS011;7717;47.792;12.076;2023-02-28T04:11:38;8.30;;;6.33;;
15228;SDS011;7717;47.792;12.076;2023-02-28T04:14:06;4.90;;;4.03;;
15228;SDS011;7717;47.792;12.076;2023-02-28T04:16:34;6.40;;;4.70;;
15228;SDS011;7717;47.792;12.076;2023-02-28T04:19:02;5.00;;;4.17;;
15228;SDS011;7717;47.792;12.076;2023-02-28T04:21:30;7.07;;;3.97;;
15228;SDS011;7717;47.792;12.076;2023-02-28T04:24:04;5.57;;;4.37;;
15228;SDS011;7717;47.792;12.076;2023-02-28T04:28:56;6.03;;;4.23;;
15228;SDS011;7717;47.792;12.076;2023-02-28T04:31:21;4.93;;;3.87;;
15228;SDS011;7717;47.792;12.076;2023-02-28T04:33:47;5.17;;;4.03;;
15228;SDS011;7717;47.792;12.076;2023-02-28T04:36:12;6.57;;;4.40;;
15228;SDS011;7717;47.792;12.076;2023-02-28T04:38:39;3.10;;;2.90;;
15228;SDS011;7717;47.792;12.076;2023-02-28T04:41:05;5.73;;;4.37;;
15228;SDS011;7717;47.792;12.076;2023-02-28T04:43:31;4.80;;;4.33;;
15228;SDS011;7717;47.792;12.076;2023-02-28T04:45:57;4.50;;;4.10;;
15228;SDS011;7717;47.792;12.076;2023-02-28T04:48:30;5.83;;;3.90;;
15228;SDS011;7717;47.792;12.076;2023-02-28T04:51:04;70.83;;;30.57;;
15228;SDS011;7717;47.792;12.076;2023-02-28T04:53:32;10.60;;;6.07;;
15228;SDS011;7717;47.792;12.076;2023-02-28T04:55:58;5.63;;;4.40;;
15228;SDS011;7717;47.792;12.076;2023-02-28T04:58:24;7.17;;;4.43;;
15228;SDS011;7717;47.792;12.076;2023-02-28T05:00:50;6.47;;;4.30;;
15228;SDS011;7717;47.792;12.076;2023-02-28T05:03:16;11.17;;;6.63;;
15228;SDS011;7717;47.792;12.076;2023-02-28T05:05:41;9.63;;;5.93;;
15228;SDS011;7717;47.792;12.076;2023-02-28T05:08:07;6.67;;;4.90;;
15228;SDS011;7717;47.792;12.076;2023-02-28T05:10:32;7.83;;;5.73;;
15228;SDS011;7717;47.792;12.076;2023-02-28T05:12:57;6.63;;;5.10;;
15228;SDS011;7717;47.792;12.076;2023-02-28T05:15:23;4.57;;;3.60;;
15228;SDS011;7717;47.792;12.076;2023-02-28T05:17:49;4.17;;;3.77;;
15228;SDS011;7717;47.792;12.076;2023-02-28T05:20:15;6.30;;;4.23;;
15228;SDS011;7717;47.792;12.076;2023-02-28T05:22:41;4.53;;;4.00;;
15228;SDS011;7717;47.792;12.076;2023-02-28T05:25:08;5.47;;;4.47;;
15228;SDS011;7717;47.792;12.076;2023-02-28T05:27:37;6.97;;;4.10;;
15228;SDS011;7717;47.792;12.076;2023-02-28T05:30:02;5.57;;;3.97;;
15228;SDS011;7717;47.792;12.076;2023-02-28T05:32:29;6.23;;;4.53;;
15228;SDS011;7717;47.792;12.076;2023-02-28T05:34:54;6.77;;;4.63;;
15228;SDS011;7717;47.792;12.076;2023-02-28T05:37:20;5.10;;;4.53;;
15228;SDS011;7717;47.792;12.076;2023-02-28T05:39:45;5.60;;;4.80;;
15228;SDS011;7717;47.792;12.076;2023-02-28T05:42:11;5.53;;;4.20;;
15228;SDS011;7717;47.792;12.076;2023-02-28T05:44:37;5.70;;;4.57;;
15228;SDS011;7717;47.792;12.076;2023-02-28T05:47:02;8.67;;;5.70;;
15228;SDS011;7717;47.792;12.076;2023-02-28T05:49:28;6.70;;;4.67;;
15228;SDS011;7717;47.792;12.076;2023-02-28T05:51:53;5.63;;;4.50;;
15228;SDS011;7717;47.792;12.076;2023-02-28T05:54:19;5.50;;;4.03;;
15228;SDS011;7717;47.792;12.076;2023-02-28T05:56:44;8.13;;;5.10;;
15228;SDS011;7717;47.792;12.076;2023-02-28T05:59:11;6.33;;;4.47;;
15228;SDS011;7717;47.792;12.076;2023-02-28T06:01:38;6.27;;;5.40;;
15228;SDS011;7717;47.792;12.076;2023-02-28T06:04:07;6.00;;;4.87;;
15228;SDS011;7717;47.792;12.076;2023-02-28T06:06:34;5.47;;;4.73;;
15228;SDS011;7717;47.792;12.076;2023-02-28T06:09:01;5.63;;;4.57;;
15228;SDS011;7717;47.792;12.076;2023-02-28T06:11:26;11.10;;;8.00;;
15228;SDS011;7717;47.792;12.076;2023-02-28T06:13:53;7.93;;;6.67;;
15228;SDS011;7717;47.792;12.076;2023-02-28T06:16:20;8.80;;;6.40;;
15228;SDS011;7717;47.792;12.076;2023-02-28T06:18:45;24.60;;;12.40;;
15228;SDS011;7717;47.792;12.076;2023-02-28T06:21:11;74.37;;;38.17;;
15228;SDS011;7717;47.792;12.076;2023-02-28T06:23:37;53.70;;;27.03;;
15228;SDS011;7717;47.792;12.076;2023-02-28T06:26:02;26.77;;;16.37;;
15228;SDS011;7717;47.792;12.076;2023-02-28T06:28:28;14.23;;;8.03;;
15228;SDS011;7717;47.792;12.076;2023-02-28T06:30:53;16.97;;;9.37;;
15228;SDS011;7717;47.792;12.076;2023-02-28T06:33:19;21.23;;;12.37;;
15228;SDS011;7717;47.792;12.076;2023-02-28T06:35:46;39.60;;;20.23;;
15228;SDS011;7717;47.792;12.076;2023-02-28T06:38:12;17.43;;;11.63;;
15228;SDS011;7717;47.792;12.076;2023-02-28T06:40:37;23.53;;;15.53;;
15228;SDS011;7717;47.792;12.076;2023-02-28T06:43:03;27.80;;;16.80;;
15228;SDS011;7717;47.792;12.076;2023-02-28T06:45:28;20.20;;;12.40;;
15228;SDS011;7717;47.792;12.076;2023-02-28T06:47:54;44.83;;;24.37;;
15228;SDS011;7717;47.792;12.076;2023-02-28T06:50:19;39.37;;;24.77;;
15228;SDS011;7717;47.792;12.076;2023-02-28T06:52:45;27.83;;;18.47;;
15228;SDS011;7717;47.792;12.076;2023-02-28T06:55:11;18.47;;;12.50;;
15228;SDS011;7717;47.792;12.076;2023-02-28T06:57:36;66.77;;;36.83;;
15228;SDS011;7717;47.792;12.076;2023-02-28T07:00:04;39.73;;;25.43;;
15228;SDS011;7717;47.792;12.076;2023-02-28T07:02:32;23.73;;;15.17;;
15228;SDS011;7717;47.792;12.076;2023-02-28T07:04:58;34.77;;;20.87;;
15228;SDS011;7717;47.792;12.076;2023-02-28T07:07:23;20.00;;;13.30;;
15228;SDS011;7717;47.792;12.076;2023-02-28T07:09:49;14.80;;;11.53;;
15228;SDS011;7717;47.792;12.076;2023-02-28T07:12:14;18.30;;;12.97;;
15228;SDS011;7717;47.792;12.076;2023-02-28T07:14:40;20.90;;;15.53;;
15228;SDS011;7717;47.792;12.076;2023-02-28T07:17:09;14.37;;;10.57;;
15228;SDS011;7717;47.792;12.076;2023-02-28T07:19:37;14.97;;;9.73;;
15228;SDS011;7717;47.792;12.076;2023-02-28T07:22:05;12.43;;;9.67;;
15228;SDS011;7717;47.792;12.076;2023-02-28T07:24:31;14.77;;;11.77;;
15228;SDS011;7717;47.792;12.076;2023-02-28T07:26:57;19.70;;;17.50;;
15228;SDS011;7717;47.792;12.076;2023-02-28T07:29:22;9.27;;;8.13;;
15228;SDS011;7717;47.792;12.076;2023-02-28T07:31:48;11.50;;;8.87;;
15228;SDS011;7717;47.792;12.076;2023-02-28T07:34:15;12.43;;;9.70;;
15228;SDS011;7717;47.792;12.076;2023-02-28T07:36:40;14.70;;;9.60;;
15228;SDS011;7717;47.792;12.076;2023-02-28T07:39:06;12.77;;;9.90;;
15228;SDS011;7717;47.792;12.076;2023-02-28T07:41:31;13.67;;;9.77;;
15228;SDS011;7717;47.792;12.076;2023-02-28T07:43:59;14.20;;;10.03;;
15228;SDS011;7717;47.792;12.076;2023-02-28T07:46:24;13.27;;;9.70;;
15228;SDS011;7717;47.792;12.076;2023-02-28T07:48:51;13.07;;;10.43;;
15228;SDS011;7717;47.792;12.076;2023-02-28T07:51:17;12.77;;;10.10;;
15228;SDS011;7717;47.792;12.076;2023-02-28T07:53:44;15.80;;;11.60;;
15228;SDS011;7717;47.792;12.076;2023-02-28T07:56:12;15.10;;;10.57;;
15228;SDS011;7717;47.792;12.076;2023-02-28T07:58:37;11.73;;;8.83;;
15228;SDS011;7717;47.792;12.076;2023-02-28T08:01:06;13.40;;;10.53;;
15228;SDS011;7717;47.792;12.076;2023-02-28T08:03:33;10.10;;;8.23;;
15228;SDS011;7717;47.792;12.076;2023-02-28T08:05:58;10.87;;;9.70;;
15228;SDS011;7717;47.792;12.076;2023-02-28T08:08:23;12.23;;;8.67;;
15228;SDS011;7717;47.792;12.076;2023-02-28T08:10:49;13.60;;;8.57;;
15228;SDS011;7717;47.792;12.076;2023-02-28T08:13:14;10.67;;;9.03;;
15228;SDS011;7717;47.792;12.076;2023-02-28T08:15:41;10.63;;;9.20;;
15228;SDS011;7717;47.792;12.076;2023-02-28T08:18:07;12.60;;;10.53;;
15228;SDS011;7717;47.792;12.076;2023-02-28T08:20:33;13.20;;;9.47;;
15228;SDS011;7717;47.792;12.076;2023-02-28T08:22:58;12.87;;;9.63;;
15228;SDS011;7717;47.792;12.076;2023-02-28T08:25:23;14.37;;;11.03;;
15228;SDS011;7717;47.792;12.076;2023-02-28T08:27:50;15.90;;;11.43;;
15228;SDS011;7717;47.792;12.076;2023-02-28T08:30:16;16.80;;;11.80;;
15228;SDS011;7717;47.792;12.076;2023-02-28T08:32:42;12.23;;;9.23;;
15228;SDS011;7717;47.792;12.076;2023-02-28T08:35:07;11.17;;;9.53;;
15228;SDS011;7717;47.792;12.076;2023-02-28T08:37:34;10.47;;;8.47;;
15228;SDS011;7717;47.792;12.076;2023-02-28T08:39:59;14.37;;;11.77;;
15228;SDS011;7717;47.792;12.076;2023-02-28T08:42:25;14.10;;;10.60;;
15228;SDS011;7717;47.792;12.076;2023-02-28T08:44:50;13.73;;;10.83;;
15228;SDS011;7717;47.792;12.076;2023-02-28T08:47:16;12.93;;;10.23;;
15228;SDS011;7717;47.792;12.076;2023-02-28T08:49:41;12.03;;;9.20;;
15228;SDS011;7717;47.792;12.076;2023-02-28T08:52:06;13.80;;;8.93;;
15228;SDS011;7717;47.792;12.076;2023-02-28T08:54:32;12.50;;;9.57;;
15228;SDS011;7717;47.792;12.076;2023-02-28T08:56:58;11.97;;;9.83;;
15228;SDS011;7717;47.792;12.076;2023-02-28T08:59:23;12.77;;;10.03;;
15228;SDS011;7717;47.792;12.076;2023-02-28T09:01:49;11.83;;;9.47;;
15228;SDS011;7717;47.792;12.076;2023-02-28T09:04:14;13.03;;;8.77;;
15228;SDS011;7717;47.792;12.076;2023-02-28T09:06:40;10.57;;;8.90;;
15228;SDS011;7717;47.792;12.076;2023-02-28T09:09:05;12.77;;;7.83;;
15228;SDS011;7717;47.792;12.076;2023-02-28T09:11:32;13.43;;;9.03;;
15228;SDS011;7717;47.792;12.076;2023-02-28T09:13:59;12.03;;;10.10;;
15228;SDS011;7717;47.792;12.076;2023-02-28T09:16:25;11.67;;;10.03;;
15228;SDS011;7717;47.792;12.076;2023-02-28T09:18:51;9.83;;;8.80;;
15228;SDS011;7717;47.792;12.076;2023-02-28T09:21:18;12.57;;;9.07;;
15228;SDS011;7717;47.792;12.076;2023-02-28T09:23:44;14.53;;;9.37;;
15228;SDS011;7717;47.792;12.076;2023-02-28T09:26:14;11.27;;;8.90;;
15228;SDS011;7717;47.792;12.076;2023-02-28T09:28:41;11.17;;;8.67;;
15228;SDS011;7717;47.792;12.076;2023-02-28T09:31:10;11.83;;;9.60;;
15228;SDS011;7717;47.792;12.076;2023-02-28T09:33:37;12.17;;;9.37;;
15228;SDS011;7717;47.792;12.076;2023-02-28T09:36:03;11.93;;;9.07;;
15228;SDS011;7717;47.792;12.076;2023-02-28T09:38:29;10.43;;;8.97;;
15228;SDS011;7717;47.792;12.076;2023-02-28T09:40:56;13.30;;;9.90;;
15228;SDS011;7717;47.792;12.076;2023-02-28T09:43:24;11.87;;;9.20;;
15228;SDS011;7717;47.792;12.076;2023-02-28T09:45:55;11.43;;;9.77;;
15228;SDS011;7717;47.792;12.076;2023-02-28T09:48:32;12.80;;;10.27;;
15228;SDS011;7717;47.792;12.076;2023-02-28T09:51:04;17.33;;;10.73;;
15228;SDS011;7717;47.792;12.076;2023-02-28T09:53:37;15.80;;;11.03;;
15228;SDS011;7717;47.792;12.076;2023-02-28T09:56:08;13.77;;;9.60;;
15228;SDS011;7717;47.792;12.076;2023-02-28T09:58:41;14.67;;;11.13;;
15228;SDS011;7717;47.792;12.076;2023-02-28T10:04:05;12.73;;;10.50;;
15228;SDS011;7717;47.792;12.076;2023-02-28T10:06:39;12.53;;;9.97;;
15228;SDS011;7717;47.792;12.076;2023-02-28T10:09:13;10.13;;;9.00;;
15228;SDS011;7717;47.792;12.076;2023-02-28T10:11:52;11.87;;;10.23;;
15228;SDS011;7717;47.792;12.076;2023-02-28T10:14:23;14.70;;;11.20;;
15228;SDS011;7717;47.792;12.076;2023-02-28T10:16:52;14.63;;;10.97;;
15228;SDS011;7717;47.792;12.076;2023-02-28T10:20:04;12.23;;;10.07;;
15228;SDS011;7717;47.792;12.076;2023-02-28T10:22:40;11.87;;;10.50;;
15228;SDS011;7717;47.792;12.076;2023-02-28T10:25:18;12.20;;;9.93;;
15228;SDS011;7717;47.792;12.076;2023-02-28T10:27:49;11.53;;;10.33;;
15228;SDS011;7717;47.792;12.076;2023-02-28T10:30:18;13.00;;;10.87;;
15228;SDS011;7717;47.792;12.076;2023-02-28T10:32:47;14.80;;;10.70;;
15228;SDS011;7717;47.792;12.076;2023-02-28T10:37:44;14.50;;;11.00;;
15228;SDS011;7717;47.792;12.076;2023-02-28T10:42:46;13.67;;;10.93;;
15228;SDS011;7717;47.792;12.076;2023-02-28T10:45:27;15.57;;;12.13;;
15228;SDS011;7717;47.792;12.076;2023-02-28T10:53:25;14.50;;;11.90;;
15228;SDS011;7717;47.792;12.076;2023-02-28T10:55:57;13.30;;;11.10;;
15228;SDS011;7717;47.792;12.076;2023-02-28T10:58:27;15.97;;;12.90;;
15228;SDS011;7717;47.792;12.076;2023-02-28T11:00:54;17.23;;;12.60;;
15228;SDS011;7717;47.792;12.076;2023-02-28T11:05:50;15.40;;;12.37;;
15228;SDS011;7717;47.792;12.076;2023-02-28T11:08:17;17.47;;;11.73;;
15228;SDS011;7717;47.792;12.076;2023-02-28T11:10:47;18.37;;;13.47;;
15228;SDS011;7717;47.792;12.076;2023-02-28T11:13:32;18.00;;;13.93;;
15228;SDS011;7717;47.792;12.076;2023-02-28T11:16:00;18.37;;;12.93;;
15228;SDS011;7717;47.792;12.076;2023-02-28T11:18:30;17.50;;;13.03;;
15228;SDS011;7717;47.792;12.076;2023-02-28T11:21:36;13.40;;;11.80;;
15228;SDS011;7717;47.792;12.076;2023-02-28T11:24:07;13.50;;;11.30;;
15228;SDS011;7717;47.792;12.076;2023-02-28T11:26:47;15.63;;;12.63;;
15228;SDS011;7717;47.792;12.076;2023-02-28T11:29:20;17.70;;;13.13;;
15228;SDS011;7717;47.792;12.076;2023-02-28T11:34:30;14.27;;;11.97;;
15228;SDS011;7717;47.792;12.076;2023-02-28T11:36:57;14.23;;;12.07;;
15228;SDS011;7717;47.792;12.076;2023-02-28T11:39:26;12.67;;;11.00;;
15228;SDS011;7717;47.792;12.076;2023-02-28T11:44:36;13.27;;;11.70;;
15228;SDS011;7717;47.792;12.076;2023-02-28T11:47:07;14.73;;;11.87;;
15228;SDS011;7717;47.792;12.076;2023-02-28T11:49:52;15.67;;;12.03;;
15228;SDS011;7717;47.792;12.076;2023-02-28T11:52:54;13.90;;;11.67;;
15228;SDS011;7717;47.792;12.076;2023-02-28T11:55:24;15.67;;;11.77;;
15228;SDS011;7717;47.792;12.076;2023-02-28T12:08:54;13.93;;;11.47;;
15228;SDS011;7717;47.792;12.076;2023-02-28T12:11:49;15.17;;;12.00;;
15228;SDS011;7717;47.792;12.076;2023-02-28T12:22:12;15.03;;;12.00;;
15228;SDS011;7717;47.792;12.076;2023-02-28T12:27:33;20.37;;;15.30;;
15228;SDS011;7717;47.792;12.076;2023-02-28T12:30:08;15.83;;;13.00;;
15228;SDS011;7717;47.792;12.076;2023-02-28T12:33:01;14.73;;;11.50;;
15228;SDS011;7717;47.792;12.076;2023-02-28T12:35:52;18.63;;;13.93;;
15228;SDS011;7717;47.792;12.076;2023-02-28T12:38:22;15.70;;;12.90;;
15228;SDS011;7717;47.792;12.076;2023-02-28T12:40:52;16.73;;;12.67;;
15228;SDS011;7717;47.792;12.076;2023-02-28T12:43:22;20.63;;;14.47;;
15228;SDS011;7717;47.792;12.076;2023-02-28T12:45:56;23.73;;;16.40;;
15228;SDS011;7717;47.792;12.076;2023-02-28T12:48:26;19.53;;;13.70;;
15228;SDS011;7717;47.792;12.076;2023-02-28T12:50:56;17.07;;;13.47;;
15228;SDS011;7717;47.792;12.076;2023-02-28T12:53:25;18.97;;;14.80;;
15228;SDS011;7717;47.792;12.076;2023-02-28T12:56:08;16.87;;;13.57;;
15228;SDS011;7717;47.792;12.076;2023-02-28T12:58:57;14.70;;;11.60;;
15228;SDS011;7717;47.792;12.076;2023-02-28T13:09:31;15.97;;;13.00;;
15228;SDS011;7717;47.792;12.076;2023-02-28T13:11:57;16.83;;;12.73;;
15228;SDS011;7717;47.792;12.076;2023-02-28T13:14:24;16.50;;;13.33;;
15228;SDS011;7717;47.792;12.076;2023-02-28T13:17:19;13.83;;;12.07;;
15228;SDS011;7717;47.792;12.076;2023-02-28T13:19:46;13.77;;;12.37;;
15228;SDS011;7717;47.792;12.076;2023-02-28T13:24:54;13.00;;;11.70;;
15228;SDS011;7717;47.792;12.076;2023-02-28T13:27:39;13.07;;;11.23;;
15228;SDS011;7717;47.792;12.076;2023-02-28T13:35:58;12.40;;;11.10;;
15228;SDS011;7717;47.792;12.076;2023-02-28T13:38:33;13.20;;;11.30;;
15228;SDS011;7717;47.792;12.076;2023-02-28T13:46:28;16.67;;;14.27;;
15228;SDS011;7717;47.792;12.076;2023-02-28T13:48:53;13.03;;;11.73;;
15228;SDS011;7717;47.792;12.076;2023-02-28T13:51:38;21.03;;;16.30;;
15228;SDS011;7717;47.792;12.076;2023-02-28T14:02:48;12.97;;;11.50;;
15228;SDS011;7717;47.792;12.076;2023-02-28T14:05:17;13.03;;;11.63;;
15228;SDS011;7717;47.792;12.076;2023-02-28T14:07:45;13.27;;;11.80;;
15228;SDS011;7717;47.792;12.076;2023-02-28T14:10:24;15.60;;;13.50;;
15228;SDS011;7717;47.792;12.076;2023-02-28T14:13:12;14.17;;;12.77;;
15228;SDS011;7717;47.792;12.076;2023-02-28T14:15:49;12.97;;;11.70;;
15228;SDS011;7717;47.792;12.076;2023-02-28T14:21:43;13.80;;;12.40;;
15228;SDS011;7717;47.792;12.076;2023-02-28T14:37:47;13.40;;;11.83;;
15228;SDS011;7717;47.792;12.076;2023-02-28T14:40:19;16.03;;;14.37;;
15228;SDS011;7717;47.792;12.076;2023-02-28T14:42:55;17.37;;;15.73;;
15228;SDS011;7717;47.792;12.076;2023-02-28T14:45:22;14.03;;;12.30;;
15228;SDS011;7717;47.792;12.076;2023-02-28T14:47:51;14.53;;;12.10;;
15228;SDS011;7717;47.792;12.076;2023-02-28T14:50:22;13.50;;;12.10;;
15228;SDS011;7717;47.792;12.076;2023-02-28T14:52:59;13.03;;;11.63;;
15228;SDS011;7717;47.792;12.076;2023-02-28T14:55:28;15.00;;;12.03;;
15228;SDS011;7717;47.792;12.076;2023-02-28T14:57:57;13.67;;;12.27;;
15228;SDS011;7717;47.792;12.076;2023-02-28T15:00:31;14.90;;;12.33;;
15228;SDS011;7717;47.792;12.076;2023-02-28T15:02:59;13.10;;;11.73;;
15228;SDS011;7717;47.792;12.076;2023-02-28T15:08:10;12.97;;;11.47;;
15228;SDS011;7717;47.792;12.076;2023-02-28T15:10:37;17.40;;;13.07;;
15228;SDS011;7717;47.792;12.076;2023-02-28T15:13:05;13.77;;;11.50;;
15228;SDS011;7717;47.792;12.076;2023-02-28T15:18:20;15.20;;;12.23;;
15228;SDS011;7717;47.792;12.076;2023-02-28T15:20:52;13.53;;;12.10;;
15228;SDS011;7717;47.792;12.076;2023-02-28T15:23:19;13.70;;;12.13;;
15228;SDS011;7717;47.792;12.076;2023-02-28T15:25:47;14.20;;;11.47;;
15228;SDS011;7717;47.792;12.076;2023-02-28T15:28:14;12.40;;;11.13;;
15228;SDS011;7717;47.792;12.076;2023-02-28T15:30:50;13.97;;;11.37;;
15228;SDS011;7717;47.792;12.076;2023-02-28T15:33:22;17.30;;;14.23;;
15228;SDS011;7717;47.792;12.076;2023-02-28T15:35:51;14.10;;;11.93;;
15228;SDS011;7717;47.792;12.076;2023-02-28T15:38:29;14.03;;;11.93;;
15228;SDS011;7717;47.792;12.076;2023-02-28T15:40:55;15.87;;;14.27;;
15228;SDS011;7717;47.792;12.076;2023-02-28T15:45:51;15.13;;;13.20;;
15228;SDS011;7717;47.792;12.076;2023-02-28T15:48:24;15.33;;;12.17;;
15228;SDS011;7717;47.792;12.076;2023-02-28T15:51:17;16.30;;;13.60;;
15228;SDS011;7717;47.792;12.076;2023-02-28T15:54:05;18.33;;;15.10;;
15228;SDS011;7717;47.792;12.076;2023-02-28T15:56:44;18.90;;;16.90;;
15228;SDS011;7717;47.792;12.076;2023-02-28T15:59:18;15.70;;;14.03;;
15228;SDS011;7717;47.792;12.076;2023-02-28T16:01:47;18.63;;;15.23;;
15228;SDS011;7717;47.792;12.076;2023-02-28T16:04:26;19.47;;;15.67;;
15228;SDS011;7717;47.792;12.076;2023-02-28T16:09:28;16.87;;;13.60;;
15228;SDS011;7717;47.792;12.076;2023-02-28T16:11:56;15.63;;;13.93;;
15228;SDS011;7717;47.792;12.076;2023-02-28T16:14:26;18.07;;;13.90;;
15228;SDS011;7717;47.792;12.076;2023-02-28T16:16:53;20.63;;;15.57;;
15228;SDS011;7717;47.792;12.076;2023-02-28T16:19:20;17.43;;;13.27;;
15228;SDS011;7717;47.792;12.076;2023-02-28T16:21:46;16.20;;;13.87;;
15228;SDS011;7717;47.792;12.076;2023-02-28T16:24:13;18.60;;;13.70;;
15228;SDS011;7717;47.792;12.076;2023-02-28T16:26:39;18.73;;;14.10;;
15228;SDS011;7717;47.792;12.076;2023-02-28T16:29:08;17.43;;;13.17;;
15228;SDS011;7717;47.792;12.076;2023-02-28T16:31:38;20.73;;;13.97;;
15228;SDS011;7717;47.792;12.076;2023-02-28T16:34:06;17.77;;;14.00;;
15228;SDS011;7717;47.792;12.076;2023-02-28T16:36:31;19.10;;;14.90;;
15228;SDS011;7717;47.792;12.076;2023-02-28T16:38:57;18.97;;;14.50;;
15228;SDS011;7717;47.792;12.076;2023-02-28T16:41:26;19.87;;;13.97;;
15228;SDS011;7717;47.792;12.076;2023-02-28T16:43:54;16.67;;;13.50;;
15228;SDS011;7717;47.792;12.076;2023-02-28T16:46:27;20.97;;;14.23;;
15228;SDS011;7717;47.792;12.076;2023-02-28T16:48:56;17.53;;;13.17;;
15228;SDS011;7717;47.792;12.076;2023-02-28T16:51:22;18.97;;;14.63;;
15228;SDS011;7717;47.792;12.076;2023-02-28T16:53:47;20.50;;;14.83;;
15228;SDS011;7717;47.792;12.076;2023-02-28T16:56:17;19.47;;;13.67;;
15228;SDS011;7717;47.792;12.076;2023-02-28T16:58:44;21.00;;;14.53;;
15228;SDS011;7717;47.792;12.076;2023-02-28T17:01:10;19.37;;;14.13;;
15228;SDS011;7717;47.792;12.076;2023-02-28T17:03:35;21.67;;;15.07;;
15228;SDS011;7717;47.792;12.076;2023-02-28T17:06:01;20.60;;;15.37;;
15228;SDS011;7717;47.792;12.076;2023-02-28T17:08:28;22.60;;;14.80;;
15228;SDS011;7717;47.792;12.076;2023-02-28T17:10:55;22.40;;;14.97;;